Time;durP1;ratioP1;P1;durP2;ratioP2;P2;SDS_P1;SDS_P2;PMS_P1;PMS_P2;Temp;Humidity;BMP_temperature;BMP_pressure;BME280_temperature;BME280_humidity;BME280_pressure;Samples;Min_cycle;Max_cycle;Signal;HPM_P1;HPM_P2
2021/08/03 00:03:30;;;;;;;;;;;15.00;99.90;;;14.07;100.00;95716.44;10308929;28;2366;-81
2021/08/03 00:08:33;;;;;;;;;;;15.00;99.90;;;13.96;100.00;95720.41;10316551;28;2432;-80
2021/08/03 00:13:36;;;;;;;;;;;14.90;99.90;;;13.79;100.00;95728.25;10315707;28;2528;-79
2021/08/03 00:18:38;;;;;;;;;;;14.80;99.90;;;13.63;100.00;95713.41;10304215;28;2546;-79
2021/08/03 00:23:41;;;;;;;;;;;14.70;99.90;;;13.43;100.00;95714.50;10308699;28;2581;-82
2021/08/03 00:28:46;;;;;;;;;;;14.60;99.90;;;13.28;100.00;95701.22;10325054;28;2479;-81
2021/08/03 00:33:49;;;;;;;;;;;14.40;99.90;;;13.20;100.00;95691.84;10318487;28;2480;-81
2021/08/03 00:38:51;;;;;;;;;;;14.30;99.90;;;13.08;100.00;95708.47;10322122;28;1964;-81
2021/08/03 00:43:54;;;;;;;;;;;14.20;99.90;;;13.01;100.00;95710.72;10325541;28;2393;-80
2021/08/03 00:48:57;;;;;;;;;;;14.20;99.90;;;12.89;100.00;95708.44;10315325;28;2545;-79
2021/08/03 00:54:00;;;;;;;;;;;14.10;99.90;;;13.01;100.00;95712.63;10291031;28;2555;-80
2021/08/03 00:59:03;;;;;;;;;;;14.00;99.90;;;13.01;100.00;95716.13;10293605;28;2505;-80
2021/08/03 01:04:09;;;;;;;;;;;14.00;99.90;;;13.10;100.00;95703.59;10296712;28;2439;-80
2021/08/03 01:09:12;;;;;;;;;;;14.10;99.90;;;13.08;100.00;95713.06;10291825;28;2728;-81
2021/08/03 01:14:16;;;;;;;;;;;14.10;99.90;;;13.25;100.00;95710.72;10298760;28;2447;-80
2021/08/03 01:19:38;;;;;;;;;;;14.20;99.90;;;13.25;100.00;95718.81;10278991;28;2559;-80
2021/08/03 01:24:42;;;;;;;;;;;14.20;99.90;;;13.25;100.00;95718.81;10295992;28;2591;-80
2021/08/03 01:29:44;;;;;;;;;;;14.20;99.90;;;13.20;100.00;95716.16;10286542;28;2016;-81
2021/08/03 01:34:47;;;;;;;;;;;14.20;99.90;;;13.13;100.00;95715.72;10298649;28;2714;-79
2021/08/03 01:39:50;;;;;;;;;;;14.20;99.90;;;13.04;100.00;95717.44;10318738;28;2936;-79
2021/08/03 01:44:52;;;;;;;;;;;14.10;99.90;;;13.01;100.00;95710.72;10285822;28;2456;-80
2021/08/03 01:49:55;;;;;;;;;;;14.00;99.90;;;12.99;100.00;95711.03;10313739;28;2568;-80
2021/08/03 01:54:58;;;;;;;;;;;14.00;99.90;;;12.88;100.00;95706.84;10318008;28;2329;-76
2021/08/03 02:00:00;;;;;;;;;;;14.00;99.90;;;12.79;100.00;95700.50;10301789;28;2484;-79
2021/08/03 02:05:03;;;;;;;;;;;13.90;99.90;;;12.73;100.00;95695.47;10310045;28;2597;-80
2021/08/03 02:10:06;;;;;;;;;;;13.90;99.90;;;12.65;100.00;95694.19;10313581;28;2967;-79
2021/08/03 02:15:09;;;;;;;;;;;13.80;99.90;;;12.62;100.00;95703.66;10317307;28;2420;-80
2021/08/03 02:20:11;;;;;;;;;;;13.70;99.90;;;12.56;100.00;95687.84;10310216;28;2413;-77
2021/08/03 02:25:14;;;;;;;;;;;13.70;99.90;;;12.43;100.00;95690.13;10312161;28;1906;-79
2021/08/03 02:30:17;;;;;;;;;;;13.60;99.90;;;12.38;100.00;95684.78;10308678;28;1908;-80
2021/08/03 02:35:20;;;;;;;;;;;13.60;99.90;;;12.30;100.00;95682.75;10299709;28;2456;-82
2021/08/03 02:40:22;;;;;;;;;;;13.50;99.90;;;12.30;100.00;95671.97;10301645;28;2413;-80
2021/08/03 02:45:25;;;;;;;;;;;13.40;99.90;;;12.30;100.00;95666.56;10316436;28;2520;-79
2021/08/03 02:50:28;;;;;;;;;;;13.40;99.90;;;12.28;100.00;95652.59;10331379;28;2420;-80
2021/08/03 02:55:31;;;;;;;;;;;13.30;99.90;;;12.22;100.00;95648.34;10303701;28;2659;-79
2021/08/03 03:00:34;;;;;;;;;;;13.30;99.90;;;12.25;100.00;95652.34;10307286;28;2572;-78
2021/08/03 03:05:36;;;;;;;;;;;13.30;99.90;;;12.29;100.00;95656.06;10305871;28;2692;-79
2021/08/03 03:10:39;;;;;;;;;;;13.40;99.90;;;12.34;100.00;95651.44;10300906;28;2043;-79
2021/08/03 03:15:42;;;;;;;;;;;13.40;99.90;;;12.42;100.00;95653.50;10311380;28;1990;-81
2021/08/03 03:20:44;;;;;;;;;;;13.40;99.90;;;12.62;100.00;95659.72;10300464;28;2658;-78
2021/08/03 03:25:47;;;;;;;;;;;13.50;99.90;;;12.74;100.00;95665.50;10293728;28;2476;-78
2021/08/03 03:30:50;;;;;;;;;;;13.70;99.90;;;12.64;100.00;95661.03;10304932;28;2489;-78
2021/08/03 03:35:53;;;;;;;;;;;13.70;99.90;;;12.67;100.00;95659.66;10306530;28;2609;-80
2021/08/03 03:40:56;;;;;;;;;;;13.70;99.90;;;12.63;100.00;95653.22;10303553;28;2537;-79
2021/08/03 03:45:59;;;;;;;;;;;13.70;99.90;;;12.53;100.00;95664.13;10299880;28;2646;-81
2021/08/03 03:51:01;;;;;;;;;;;13.60;99.90;;;12.54;100.00;95654.97;10303683;28;2282;-78
2021/08/03 03:56:04;;;;;;;;;;;13.60;99.90;;;12.52;100.00;95657.94;10301883;28;1990;-79
2021/08/03 04:01:07;;;;;;;;;;;13.60;99.90;;;12.48;100.00;95656.94;10317702;28;2522;-79
2021/08/03 04:06:10;;;;;;;;;;;13.60;99.90;;;12.48;100.00;95656.94;10319028;28;2540;-80
2021/08/03 04:11:14;;;;;;;;;;;13.50;99.90;;;12.55;100.00;95656.56;10302451;28;2517;-79
2021/08/03 04:16:19;;;;;;;;;;;13.60;99.90;;;12.77;100.00;95654.13;10302157;28;2639;-80
2021/08/03 04:21:42;;;;;;;;;;;13.70;99.90;;;12.89;100.00;95646.41;10302204;28;2547;-80
2021/08/03 04:26:45;;;;;;;;;;;13.80;99.90;;;12.82;100.00;95635.19;10316307;28;2131;-78
2021/08/03 04:31:48;;;;;;;;;;;13.80;99.90;;;12.82;100.00;95639.78;10309515;28;2548;-79
2021/08/03 04:36:50;;;;;;;;;;;13.80;99.90;;;12.88;100.00;95631.31;10283432;28;2608;-80
2021/08/03 04:41:53;;;;;;;;;;;13.80;99.90;;;12.93;100.00;95630.44;10289219;28;2698;-80
2021/08/03 04:46:56;;;;;;;;;;;13.90;99.90;;;13.19;100.00;95623.56;10307287;28;1983;-79
2021/08/03 04:51:59;;;;;;;;;;;14.00;99.90;;;13.72;100.00;95628.66;10315495;28;2729;-79
2021/08/03 04:57:02;;;;;;;;;;;14.30;99.90;;;14.30;97.73;95614.63;10277512;28;2683;-79
2021/08/03 05:02:05;;;;;;;;;;;14.80;99.90;;;14.72;93.24;95611.94;10282977;28;2620;-80
2021/08/03 05:07:09;;;;;;;;;;;15.20;99.90;;;14.86;92.22;95616.19;10288098;28;2686;-78
2021/08/03 05:12:12;;;;;;;;;;;15.50;99.90;;;15.43;89.36;95617.63;10290872;28;2582;-79
2021/08/03 05:17:14;;;;;;;;;;;15.80;99.90;;;15.78;86.46;95605.94;10291779;28;2615;-80
2021/08/03 05:22:17;;;;;;;;;;;16.20;99.90;;;15.91;85.43;95591.50;10288063;28;2713;-80
2021/08/03 05:27:20;;;;;;;;;;;16.50;99.90;;;16.34;82.06;95598.19;10293297;28;2577;-79
2021/08/03 05:32:23;;;;;;;;;;;16.80;99.90;;;16.43;83.54;95588.97;10276964;28;2492;-79
2021/08/03 05:37:25;;;;;;;;;;;17.10;99.90;;;16.94;81.82;95595.63;10292777;28;2644;-82
2021/08/03 05:42:28;;;;;;;;;;;17.30;99.90;;;17.07;78.60;95609.38;10297388;28;2596;-79
2021/08/03 05:47:31;;;;;;;;;;;17.60;99.90;;;17.15;79.63;95606.66;10314440;28;2553;-79
2021/08/03 05:52:34;;;;;;;;;;;17.70;99.90;;;17.50;78.21;95598.53;10307137;28;2517;-77
2021/08/03 05:57:36;;;;;;;;;;;17.90;99.90;;;17.98;76.44;95601.00;10312864;28;2581;-78
2021/08/03 06:02:40;;;;;;;;;;;18.30;99.90;;;18.51;73.55;95602.41;10296768;28;2616;-78
2021/08/03 06:07:45;;;;;;;;;;;18.70;99.90;;;18.28;73.70;95607.28;10286922;28;2579;-79
2021/08/03 06:12:47;;;;;;;;;;;18.90;99.90;;;18.17;75.44;95603.31;10304160;28;2553;-79
2021/08/03 06:17:50;;;;;;;;;;;18.80;99.90;;;18.42;74.16;95598.09;10309730;28;2028;-79
2021/08/03 06:22:54;;;;;;;;;;;19.00;99.90;;;18.66;71.14;95592.84;10287563;28;2592;-79
2021/08/03 06:27:56;;;;;;;;;;;19.10;99.90;;;19.16;71.03;95600.25;10295710;28;2516;-80
2021/08/03 06:32:59;;;;;;;;;;;19.50;99.90;;;19.69;67.52;95606.84;10289854;28;2873;-79
2021/08/03 06:38:02;;;;;;;;;;;19.90;99.90;;;19.82;65.85;95611.22;10281028;28;2538;-77
2021/08/03 06:43:06;;;;;;;;;;;20.30;99.90;;;19.82;67.54;95618.59;10282895;28;2579;-79
2021/08/03 06:48:09;;;;;;;;;;;20.40;99.90;;;19.85;65.64;95605.09;10290436;28;2694;-80
2021/08/03 06:53:12;;;;;;;;;;;20.50;99.90;;;20.03;62.94;95602.97;10277360;28;2461;-80
2021/08/03 06:58:15;;;;;;;;;;;20.60;99.90;;;20.07;64.99;95589.47;10285851;28;2517;-80
2021/08/03 07:03:18;;;;;;;;;;;20.80;99.90;;;20.20;63.29;95588.34;10292573;28;2560;-80
2021/08/03 07:08:21;;;;;;;;;;;20.90;99.90;;;20.15;62.89;95585.81;10278577;28;2587;-79
2021/08/03 07:13:23;;;;;;;;;;;20.80;99.90;;;20.80;60.11;95584.03;10282300;28;2699;-78
2021/08/03 07:18:26;;;;;;;;;;;21.10;99.90;;;20.75;56.85;95587.03;10299101;28;2245;-80
2021/08/03 07:23:29;;;;;;;;;;;21.30;99.90;;;21.33;54.63;95581.34;10310132;28;1216;-77
2021/08/03 07:28:31;;;;;;;;;;;21.50;99.90;;;21.56;55.42;95577.72;10299414;28;2634;-77
2021/08/03 07:33:35;;;;;;;;;;;21.90;99.90;;;22.34;53.77;95589.19;10300772;28;2481;-79
2021/08/03 07:38:38;;;;;;;;;;;22.40;99.90;;;21.77;49.49;95580.25;10298526;28;2479;-78
2021/08/03 07:43:42;;;;;;;;;;;22.30;99.90;;;21.56;53.08;95583.19;10283212;28;2275;-79
2021/08/03 07:48:50;;;;;;;;;;;22.20;99.90;;;22.10;50.11;95582.72;10288313;28;1978;-79
2021/08/03 07:53:52;;;;;;;;;;;22.40;99.90;;;21.81;52.41;95572.91;10302712;28;1953;-79
2021/08/03 07:58:55;;;;;;;;;;;22.50;99.90;;;21.93;52.26;95576.72;10314150;28;2554;-79
2021/08/03 08:03:58;;;;;;;;;;;22.50;99.90;;;22.15;50.17;95569.91;10310557;28;2061;-79
2021/08/03 08:09:01;;;;;;;;;;;22.50;99.90;;;21.69;51.08;95575.72;10306938;28;2620;-79
2021/08/03 08:14:05;;;;;;;;;;;22.50;99.90;;;22.07;50.54;95577.91;10308529;28;2059;-78
2021/08/03 08:19:07;;;;;;;;;;;22.50;99.90;;;22.31;52.89;95579.72;10295536;28;2622;-78
2021/08/03 08:24:10;;;;;;;;;;;22.80;99.90;;;22.74;47.35;95582.69;10299118;28;2569;-79
2021/08/03 08:29:16;;;;;;;;;;;23.20;99.90;;;22.41;49.50;95570.19;10293906;28;2516;-78
2021/08/03 08:34:19;;;;;;;;;;;23.00;99.90;;;22.29;47.72;95554.63;10286511;28;2608;-78
2021/08/03 08:39:22;;;;;;;;;;;23.00;99.90;;;23.10;46.34;95551.44;10293131;28;2611;-78
2021/08/03 08:44:25;;;;;;;;;;;23.50;99.90;;;22.57;48.16;95550.97;10290058;28;2611;-79
2021/08/03 08:49:28;;;;;;;;;;;23.40;99.90;;;22.85;48.85;95556.34;10294057;28;2977;-78
2021/08/03 08:54:32;;;;;;;;;;;23.30;99.90;;;23.35;47.07;95554.66;10293533;28;2627;-79
2021/08/03 08:59:34;;;;;;;;;;;23.70;99.90;;;24.02;45.21;95557.16;10290089;28;2670;-79
2021/08/03 09:04:38;;;;;;;;;;;24.10;99.90;;;23.99;45.26;95562.22;10296374;28;2764;-80
2021/08/03 09:09:41;;;;;;;;;;;24.40;99.90;;;23.95;44.32;95549.59;10296024;28;2816;-78
2021/08/03 09:14:44;;;;;;;;;;;24.40;99.90;;;24.38;44.64;95551.16;10293326;28;2685;-80
2021/08/03 09:19:47;;;;;;;;;;;24.70;99.90;;;24.33;43.07;95545.16;10290657;28;2818;-79
2021/08/03 09:24:49;;;;;;;;;;;25.10;99.90;;;25.21;40.20;95539.44;10302091;28;2612;-80
2021/08/03 09:29:52;;;;;;;;;;;25.40;99.90;;;24.53;42.89;95535.69;10308682;28;2515;-78
2021/08/03 09:34:55;;;;;;;;;;;25.40;99.90;;;24.27;44.71;95531.72;10319835;28;2369;-80
2021/08/03 09:39:57;;;;;;;;;;;25.30;99.90;;;24.48;43.56;95527.75;10299638;28;2400;-81
2021/08/03 09:45:00;;;;;;;;;;;25.10;99.90;;;24.80;40.60;95529.00;10287602;28;2394;-80
2021/08/03 09:50:06;;;;;;;;;;;25.20;99.90;;;24.62;42.27;95532.66;10299100;28;2440;-80
2021/08/03 09:55:09;;;;;;;;;;;25.00;99.90;;;24.79;42.10;95540.38;10296676;28;2563;-81
2021/08/03 10:00:11;;;;;;;;;;;25.10;99.90;;;24.59;41.78;95539.69;10310009;28;2381;-80
2021/08/03 10:05:14;;;;;;;;;;;25.00;99.90;;;24.92;42.02;95524.47;10278819;28;2425;-80
2021/08/03 10:10:17;;;;;;;;;;;25.10;99.90;;;25.15;41.63;95519.72;10290194;28;2516;-80
2021/08/03 10:15:20;;;;;;;;;;;25.30;99.90;;;25.12;40.54;95528.69;10289222;28;2548;-80
2021/08/03 10:20:23;;;;;;;;;;;25.50;99.90;;;24.71;40.48;95524.97;10292498;28;2441;-80
2021/08/03 10:25:26;;;;;;;;;;;25.30;99.90;;;24.09;41.71;95505.13;10297986;28;2420;-80
2021/08/03 10:30:28;;;;;;;;;;;25.10;99.90;;;23.81;42.17;95505.41;10300842;28;2502;-80
2021/08/03 10:35:31;;;;;;;;;;;25.10;99.90;;;25.11;41.31;95505.09;10302656;28;2544;-80
2021/08/03 10:40:34;;;;;;;;;;;25.30;99.90;;;23.55;43.79;95509.63;10282189;28;3009;-79
2021/08/03 10:45:36;;;;;;;;;;;25.00;99.90;;;23.97;42.47;95497.84;10272248;28;2670;-77
2021/08/03 10:50:39;;;;;;;;;;;24.60;99.90;;;23.89;42.57;95509.88;10291648;28;2329;-80
2021/08/03 10:55:42;;;;;;;;;;;24.60;99.90;;;23.94;43.26;95509.56;10291649;28;2498;-78
2021/08/03 11:00:45;;;;;;;;;;;24.50;99.90;;;23.69;43.00;95498.16;10290857;28;2410;-79
2021/08/03 11:05:48;;;;;;;;;;;24.70;99.90;;;24.26;43.03;95493.63;10284334;28;2492;-79
2021/08/03 11:10:50;;;;;;;;;;;24.90;99.90;;;24.61;42.43;95498.09;10285879;28;2583;-77
2021/08/03 11:15:53;;;;;;;;;;;25.30;99.90;;;24.35;42.19;95490.66;10279272;28;2413;-80
2021/08/03 11:20:57;;;;;;;;;;;25.70;99.90;;;23.80;44.35;95481.88;10276254;28;2446;-79
2021/08/03 11:26:00;;;;;;;;;;;25.20;99.90;;;23.73;43.83;95471.56;10280975;28;2261;-80
2021/08/03 11:31:03;;;;;;;;;;;25.20;99.90;;;25.23;40.84;95457.31;10275296;28;2329;-81
2021/08/03 11:36:06;;;;;;;;;;;26.00;99.90;;;24.76;41.11;95461.44;10301304;28;2404;-78
2021/08/03 11:41:08;;;;;;;;;;;26.10;99.90;;;24.09;43.74;95448.25;10304495;28;2373;-78
2021/08/03 11:46:11;;;;;;;;;;;25.50;99.90;;;24.17;43.94;95443.66;10293068;28;2563;-80
2021/08/03 11:51:14;;;;;;;;;;;25.20;99.90;;;23.38;44.56;95447.78;10300311;28;2282;-79
2021/08/03 11:56:17;;;;;;;;;;;24.70;99.90;;;24.08;42.62;95443.13;10294715;28;2381;-80
2021/08/03 12:01:21;;;;;;;;;;;24.80;99.90;;;24.45;42.64;95432.34;10280944;28;2379;-78
2021/08/03 12:06:25;;;;;;;;;;;25.00;99.90;;;24.68;40.67;95422.03;10308813;28;2732;-80
2021/08/03 12:11:29;;;;;;;;;;;25.10;99.90;;;24.28;42.89;95425.38;10313952;28;2286;-79
2021/08/03 12:16:32;;;;;;;;;;;25.30;99.90;;;24.10;42.32;95416.88;10304286;28;2151;-80
2021/08/03 12:21:35;;;;;;;;;;;25.10;99.90;;;24.28;42.66;95411.66;10305590;28;2345;-80
2021/08/03 12:26:39;;;;;;;;;;;24.80;99.90;;;24.44;41.96;95406.03;10290064;28;2401;-80
2021/08/03 12:31:42;;;;;;;;;;;24.80;99.90;;;24.26;42.05;95416.72;10300703;28;2263;-80
2021/08/03 12:36:45;;;;;;;;;;;25.00;99.90;;;24.35;41.68;95419.22;10312191;28;2342;-78
2021/08/03 12:41:48;;;;;;;;;;;24.90;99.90;;;24.43;40.69;95413.50;10303806;28;2345;-80
2021/08/03 12:46:51;;;;;;;;;;;25.00;99.90;;;24.18;41.08;95399.38;10320514;28;2381;-81
2021/08/03 12:51:56;;;;;;;;;;;25.30;99.90;;;24.02;41.46;95393.22;10313069;28;2339;-78
2021/08/03 12:56:59;;;;;;;;;;;25.30;99.90;;;23.68;42.42;95395.84;10304597;28;2215;-81
2021/08/03 13:02:02;;;;;;;;;;;24.90;99.90;;;23.78;42.68;95399.09;10289395;28;2557;-79
2021/08/03 13:07:08;;;;;;;;;;;24.90;99.90;;;23.70;43.72;95395.47;10293284;28;2419;-81
2021/08/03 13:12:13;;;;;;;;;;;24.80;99.90;;;23.76;42.31;95393.19;10283392;28;2365;-80
2021/08/03 13:17:17;;;;;;;;;;;24.80;99.90;;;24.03;40.71;95397.53;10295084;28;2390;-80
2021/08/03 13:22:20;;;;;;;;;;;24.80;99.20;;;24.27;38.74;95385.34;10316841;28;2334;-82
2021/08/03 13:27:23;;;;;;;;;;;24.80;97.60;;;24.71;38.61;95380.09;10312355;28;2102;-81
2021/08/03 13:32:26;;;;;;;;;;;25.00;97.40;;;24.46;38.84;95376.22;10315370;28;2272;-80
2021/08/03 13:37:30;;;;;;;;;;;25.30;95.50;;;24.63;37.04;95380.38;10297897;28;4167;-81
2021/08/03 13:42:33;;;;;;;;;;;25.30;93.80;;;24.53;38.51;95377.09;10285627;28;2363;-79
2021/08/03 13:47:36;;;;;;;;;;;25.50;94.50;;;24.32;39.34;95376.00;10294497;28;2350;-79
2021/08/03 13:52:40;;;;;;;;;;;25.10;94.80;;;23.74;39.47;95382.59;10297304;28;2373;-79
2021/08/03 13:57:43;;;;;;;;;;;24.70;94.70;;;23.26;42.17;95375.84;10314638;28;2371;-80
2021/08/03 14:02:46;;;;;;;;;;;24.30;97.20;;;23.06;42.81;95377.84;10298302;28;2570;-80
2021/08/03 14:07:50;;;;;;;;;;;24.00;98.20;;;23.08;42.26;95378.25;10285912;28;2476;-80
2021/08/03 14:12:53;;;;;;;;;;;23.70;98.30;;;23.54;41.59;95364.56;10284724;28;2370;-79
2021/08/03 14:17:56;;;;;;;;;;;24.00;98.30;;;23.85;42.00;95380.00;10286104;28;2540;-79
2021/08/03 14:22:59;;;;;;;;;;;24.40;98.90;;;23.76;43.12;95372.03;10291063;28;2499;-81
2021/08/03 14:28:04;;;;;;;;;;;24.50;99.80;;;23.65;43.26;95357.34;10290804;28;2335;-80
2021/08/03 14:33:09;;;;;;;;;;;24.40;99.90;;;23.16;44.51;95353.38;10283755;28;2288;-81
2021/08/03 14:38:12;;;;;;;;;;;24.20;99.90;;;23.54;44.12;95359.91;10301597;28;2357;-80
2021/08/03 14:43:17;;;;;;;;;;;24.10;99.90;;;23.20;45.02;95356.97;10296248;28;2406;-80
2021/08/03 14:48:20;;;;;;;;;;;24.10;99.90;;;22.38;47.42;95357.28;10282125;28;2375;-81
2021/08/03 14:53:22;;;;;;;;;;;23.60;99.90;;;20.98;52.80;95377.72;10299301;28;2314;-79
2021/08/03 14:58:25;;;;;;;;;;;22.60;99.90;;;20.68;54.57;95374.56;10298175;28;2313;-81
2021/08/03 15:03:28;;;;;;;;;;;21.90;99.90;;;20.52;56.42;95379.16;10281421;28;2280;-80
2021/08/03 15:08:31;;;;;;;;;;;21.50;99.90;;;20.37;57.91;95380.69;10296873;28;1972;-79
2021/08/03 15:13:33;;;;;;;;;;;21.20;99.90;;;20.27;58.20;95397.53;10290836;28;2328;-82
2021/08/03 15:18:36;;;;;;;;;;;21.10;99.90;;;19.98;57.94;95407.56;10282543;28;2301;-78
2021/08/03 15:23:39;;;;;;;;;;;21.00;99.90;;;20.33;56.43;95404.31;10288577;28;2275;-82
2021/08/03 15:28:42;;;;;;;;;;;21.10;99.90;;;20.63;51.58;95404.84;10291628;28;2472;-82
2021/08/03 15:33:45;;;;;;;;;;;21.40;99.90;;;20.84;50.60;95401.13;10290818;28;2270;-82
2021/08/03 15:38:47;;;;;;;;;;;21.50;99.90;;;21.02;49.59;95416.88;10285883;28;2117;-81
2021/08/03 15:43:50;;;;;;;;;;;21.70;99.90;;;20.44;51.68;95416.38;10287409;28;2364;-81
2021/08/03 15:48:54;;;;;;;;;;;21.50;99.90;;;20.33;52.60;95426.16;10283487;28;2254;-82
2021/08/03 15:53:56;;;;;;;;;;;21.20;99.90;;;20.11;54.14;95445.78;10295541;28;2513;-79
2021/08/03 15:58:59;;;;;;;;;;;21.00;99.90;;;19.63;56.90;95463.69;10297206;28;2062;-81
2021/08/03 16:04:02;;;;;;;;;;;20.70;99.90;;;19.35;60.73;95477.91;10300827;28;2610;-81
2021/08/03 16:09:05;;;;;;;;;;;20.50;99.90;;;18.54;67.50;95489.31;10291520;28;2307;-79
2021/08/03 16:14:08;;;;;;;;;;;19.90;99.90;;;17.21;77.53;95493.22;10315474;28;2351;-80
2021/08/03 16:19:11;;;;;;;;;;;18.80;99.90;;;16.56;81.53;95497.69;10303896;28;2365;-81
2021/08/03 16:24:16;;;;;;;;;;;17.90;99.90;;;16.21;86.49;95507.69;10320317;28;2087;-78
2021/08/03 16:29:19;;;;;;;;;;;17.40;99.90;;;16.11;88.20;95497.94;10316359;28;2187;-81
2021/08/03 16:34:22;;;;;;;;;;;17.20;99.90;;;16.17;90.93;95485.84;10310424;28;2271;-81
2021/08/03 16:39:25;;;;;;;;;;;17.10;99.90;;;16.20;90.66;95496.03;10309287;28;2299;-81
2021/08/03 16:44:28;;;;;;;;;;;17.20;99.90;;;16.24;90.83;95515.22;10298447;28;2313;-80
2021/08/03 16:49:31;;;;;;;;;;;17.10;99.90;;;16.31;90.23;95501.19;10297426;28;2428;-80
2021/08/03 16:54:43;;;;;;;;;;;17.20;99.90;;;16.10;90.58;95507.19;10301420;28;2357;-81
2021/08/03 16:59:45;;;;;;;;;;;17.10;99.90;;;16.14;91.71;95505.44;10293448;28;2300;-76
2021/08/03 17:04:48;;;;;;;;;;;17.10;99.90;;;16.03;95.06;95490.59;10280935;28;2323;-78
2021/08/03 17:09:52;;;;;;;;;;;17.10;99.90;;;15.84;93.72;95492.75;10281634;28;1885;-78
2021/08/03 17:14:54;;;;;;;;;;;17.00;99.90;;;15.84;93.54;95499.00;10278689;28;2321;-78
2021/08/03 17:19:57;;;;;;;;;;;16.90;99.90;;;15.84;90.67;95506.28;10289930;28;2354;-80
2021/08/03 17:25:00;;;;;;;;;;;16.90;99.90;;;15.87;94.09;95516.53;10279682;28;2330;-78
2021/08/03 17:30:03;;;;;;;;;;;16.90;99.90;;;15.94;91.98;95520.38;10283526;28;2300;-78
2021/08/03 17:35:06;;;;;;;;;;;16.90;99.90;;;15.95;91.89;95530.09;10273686;28;2254;-78
2021/08/03 17:40:09;;;;;;;;;;;16.90;99.90;;;15.96;93.18;95528.19;10288687;28;2020;-80
2021/08/03 17:45:15;;;;;;;;;;;17.00;99.90;;;15.81;95.34;95537.53;10296033;28;2283;-82
2021/08/03 17:50:17;;;;;;;;;;;16.90;99.90;;;15.62;96.68;95540.47;10315053;28;2338;-79
2021/08/03 17:55:20;;;;;;;;;;;16.70;99.90;;;15.54;97.09;95541.22;10311557;28;2344;-81
2021/08/03 18:00:23;;;;;;;;;;;16.60;99.90;;;15.39;97.35;95538.88;10317084;28;2191;-80
2021/08/03 18:05:26;;;;;;;;;;;16.50;99.90;;;15.40;96.98;95535.88;10302782;28;2377;-80
2021/08/03 18:10:29;;;;;;;;;;;16.40;99.90;;;15.18;97.68;95540.50;10298126;28;2281;-79
2021/08/03 18:15:31;;;;;;;;;;;16.20;99.90;;;15.13;97.21;95530.59;10290612;28;2359;-80
2021/08/03 18:20:34;;;;;;;;;;;16.20;99.90;;;15.10;96.98;95523.88;10291002;28;2353;-80
2021/08/03 18:25:37;;;;;;;;;;;16.20;99.90;;;15.16;95.63;95519.16;10285235;28;2241;-77
2021/08/03 18:30:40;;;;;;;;;;;16.20;99.90;;;15.19;95.38;95521.22;10281725;28;2302;-79
2021/08/03 18:35:43;;;;;;;;;;;16.20;99.90;;;15.22;94.94;95525.25;10284849;28;2297;-77
2021/08/03 18:40:45;;;;;;;;;;;16.20;99.90;;;15.13;95.79;95523.25;10291992;28;2222;-78
2021/08/03 18:45:48;;;;;;;;;;;16.20;99.90;;;15.20;95.92;95516.59;10287699;28;2317;-80
2021/08/03 18:50:51;;;;;;;;;;;16.10;99.90;;;15.18;95.56;95529.66;10297984;28;2381;-78
2021/08/03 18:55:54;;;;;;;;;;;16.20;99.90;;;15.12;96.01;95531.69;10297463;28;2405;-79
2021/08/03 19:00:57;;;;;;;;;;;16.10;99.90;;;15.13;96.11;95536.78;10312249;28;2287;-80
2021/08/03 19:06:00;;;;;;;;;;;16.10;99.90;;;15.83;92.89;95535.31;10315625;28;2452;-81
2021/08/03 19:11:03;;;;;;;;;;;16.30;99.90;;;16.09;89.60;95540.81;10300479;28;2254;-81
2021/08/03 19:16:07;;;;;;;;;;;16.70;99.90;;;16.19;88.91;95556.81;10297956;28;2294;-79
2021/08/03 19:21:10;;;;;;;;;;;16.90;99.90;;;16.18;88.00;95566.06;10308295;28;2274;-80
2021/08/03 19:26:12;;;;;;;;;;;17.00;99.90;;;16.42;85.79;95567.59;10320291;28;2260;-80
2021/08/03 19:31:15;;;;;;;;;;;17.10;99.90;;;16.42;86.20;95573.81;10315363;28;2304;-80
2021/08/03 19:36:21;;;;;;;;;;;17.20;99.90;;;16.44;86.02;95584.34;10286716;28;2547;-81
2021/08/03 19:41:24;;;;;;;;;;;17.20;99.90;;;16.23;86.26;95589.56;10303847;28;2393;-78
2021/08/03 19:46:26;;;;;;;;;;;17.20;99.90;;;16.04;87.32;95595.22;10310759;28;2297;-79
2021/08/03 19:51:29;;;;;;;;;;;17.10;99.90;;;16.25;85.93;95592.75;10290414;28;2144;-77
2021/08/03 19:56:32;;;;;;;;;;;17.10;99.90;;;15.75;88.07;95589.47;10283991;28;2340;-76
2021/08/03 20:01:35;;;;;;;;;;;16.90;99.90;;;15.70;89.12;95589.59;10285986;28;2301;-79
2021/08/03 20:06:38;;;;;;;;;;;16.70;99.90;;;15.62;90.29;95602.78;10281873;28;2380;-78
2021/08/03 20:11:44;;;;;;;;;;;16.60;99.90;;;15.61;89.78;95606.59;10280892;28;2302;-78
2021/08/03 20:16:47;;;;;;;;;;;16.50;99.90;;;15.52;90.64;95619.25;10285836;28;2317;-77
2021/08/03 20:21:49;;;;;;;;;;;16.50;99.90;;;15.50;91.30;95618.78;10283404;28;2337;-78
2021/08/03 20:26:52;;;;;;;;;;;16.40;99.90;;;15.40;90.60;95603.59;10289905;28;2369;-77
2021/08/03 20:31:55;;;;;;;;;;;16.40;99.90;;;15.27;93.66;95604.44;10303929;28;2214;-77
2021/08/03 20:36:58;;;;;;;;;;;16.30;99.90;;;15.19;92.71;95617.91;10286116;28;2306;-77
2021/08/03 20:42:01;;;;;;;;;;;16.20;99.90;;;15.18;93.99;95627.13;10283065;28;2235;-78
2021/08/03 20:47:03;;;;;;;;;;;16.10;99.90;;;15.14;92.97;95611.53;10283350;28;2358;-77
2021/08/03 20:52:06;;;;;;;;;;;16.10;99.90;;;15.11;92.94;95611.31;10280706;28;2340;-77
2021/08/03 20:57:09;;;;;;;;;;;16.10;99.90;;;15.05;92.03;95618.75;10284136;28;2416;-78
2021/08/03 21:02:12;;;;;;;;;;;16.10;99.90;;;15.07;92.13;95618.44;10276941;28;2272;-78
2021/08/03 21:07:15;;;;;;;;;;;16.00;99.90;;;14.95;92.15;95619.00;10285770;28;2293;-77
2021/08/03 21:12:17;;;;;;;;;;;16.00;99.90;;;14.94;91.98;95627.41;10282975;28;2351;-77
2021/08/03 21:17:20;;;;;;;;;;;16.00;99.90;;;14.76;91.50;95626.44;10295521;28;2290;-78
2021/08/03 21:22:23;;;;;;;;;;;15.90;99.90;;;14.72;92.16;95618.13;10297140;28;2067;-76
2021/08/03 21:27:25;;;;;;;;;;;15.80;99.90;;;14.62;93.22;95626.44;10300022;28;2292;-77
2021/08/03 21:32:28;;;;;;;;;;;15.70;99.90;;;14.63;93.62;95643.47;10278273;28;2444;-78
2021/08/03 21:37:31;;;;;;;;;;;15.60;99.90;;;14.61;92.64;95635.69;10274693;28;2353;-78
2021/08/03 21:42:34;;;;;;;;;;;15.60;99.90;;;14.59;91.63;95627.06;10273453;28;2385;-76
2021/08/03 21:47:36;;;;;;;;;;;15.60;99.90;;;14.57;93.21;95623.88;10311751;28;2312;-76
2021/08/03 21:52:39;;;;;;;;;;;15.60;99.90;;;14.52;94.23;95627.47;10317154;28;2122;-77
2021/08/03 21:57:43;;;;;;;;;;;15.50;99.90;;;14.46;93.71;95636.78;10297376;28;2235;-78
2021/08/03 22:02:45;;;;;;;;;;;15.50;99.90;;;14.22;96.49;95628.03;10292758;28;2240;-78
2021/08/03 22:07:49;;;;;;;;;;;15.30;99.90;;;14.11;98.06;95634.75;10273091;28;2408;-76
2021/08/03 22:12:52;;;;;;;;;;;15.20;99.90;;;14.13;100.00;95632.56;10279329;28;2285;-76
2021/08/03 22:17:55;;;;;;;;;;;15.20;99.90;;;13.99;100.00;95627.91;10272707;28;2464;-77
2021/08/03 22:22:57;;;;;;;;;;;15.10;99.90;;;13.87;100.00;95638.44;10264318;28;2400;-77
2021/08/03 22:28:00;;;;;;;;;;;15.00;99.90;;;13.87;100.00;95641.13;10272712;28;2277;-77
2021/08/03 22:33:03;;;;;;;;;;;14.90;99.90;;;13.92;100.00;95635.63;10271265;28;2296;-77
2021/08/03 22:38:05;;;;;;;;;;;14.90;99.90;;;13.89;100.00;95640.81;10282210;28;2285;-77
2021/08/03 22:43:08;;;;;;;;;;;14.90;99.90;;;13.91;100.00;95634.00;10271386;28;2428;-76
2021/08/03 22:48:11;;;;;;;;;;;14.90;99.90;;;13.90;100.00;95627.00;10271654;28;2381;-76
2021/08/03 22:53:13;;;;;;;;;;;14.90;99.90;;;13.87;100.00;95630.31;10279437;28;2404;-77
2021/08/03 22:58:16;;;;;;;;;;;14.90;99.90;;;13.84;100.00;95622.78;10266871;28;2472;-77
2021/08/03 23:03:19;;;;;;;;;;;14.90;99.90;;;13.88;100.00;95629.22;10276891;28;2255;-78
2021/08/03 23:08:22;;;;;;;;;;;14.90;99.90;;;13.86;100.00;95626.00;10265434;28;2301;-78